createdAt,value
2018-10-12T00:01:43.633Z,16.39
2018-10-12T00:04:11.979Z,16.34
2018-10-12T00:06:40.445Z,16.33
2018-10-12T00:09:10.172Z,16.33
2018-10-12T00:11:38.868Z,16.33
2018-10-12T00:14:07.269Z,16.32
2018-10-12T00:16:35.597Z,16.29
2018-10-12T00:19:03.945Z,16.30
2018-10-12T00:21:32.372Z,16.28
2018-10-12T00:24:00.701Z,16.26
2018-10-12T00:26:29.086Z,16.24
2018-10-12T00:28:57.461Z,16.25
2018-10-12T00:31:25.842Z,16.20
2018-10-12T00:33:54.192Z,16.21
2018-10-12T00:36:22.561Z,16.17
2018-10-12T00:38:51.498Z,16.16
2018-10-12T00:41:19.833Z,16.09
2018-10-12T00:43:48.184Z,16.08
2018-10-12T00:46:16.613Z,16.07
2018-10-12T00:48:44.954Z,16.04
2018-10-12T00:51:13.285Z,16.02
2018-10-12T00:53:41.615Z,16.00
2018-10-12T00:56:10.141Z,15.95
2018-10-12T00:58:38.521Z,15.92
2018-10-12T01:01:06.906Z,15.87
2018-10-12T01:03:35.243Z,15.86
2018-10-12T01:06:03.574Z,15.82
2018-10-12T01:08:31.901Z,15.78
2018-10-12T01:11:00.286Z,15.74
2018-10-12T01:13:28.641Z,15.74
2018-10-12T01:15:56.972Z,15.68
2018-10-12T01:18:25.331Z,15.64
2018-10-12T01:20:53.717Z,15.63
2018-10-12T01:23:22.058Z,15.61
2018-10-12T01:25:50.395Z,15.58
2018-10-12T01:28:18.739Z,15.55
2018-10-12T01:30:47.118Z,15.51
2018-10-12T01:33:15.464Z,15.49
2018-10-12T01:35:43.805Z,15.47
2018-10-12T01:38:12.153Z,15.40
2018-10-12T01:40:40.502Z,15.34
2018-10-12T01:43:08.836Z,15.30
2018-10-12T01:45:37.185Z,15.31
2018-10-12T01:48:05.594Z,15.26
2018-10-12T01:50:33.965Z,15.22
2018-10-12T01:53:02.298Z,15.19
2018-10-12T01:55:30.664Z,15.24
2018-10-12T01:57:59.054Z,15.19
2018-10-12T02:00:27.527Z,15.17
2018-10-12T02:02:55.869Z,15.14
2018-10-12T02:05:24.223Z,15.09
2018-10-12T02:07:52.585Z,15.05
2018-10-12T02:10:20.935Z,15.05
2018-10-12T02:12:49.256Z,15.02
2018-10-12T02:15:17.615Z,14.99
2018-10-12T02:17:45.937Z,14.96
2018-10-12T02:20:14.351Z,14.96
2018-10-12T02:22:43.060Z,14.93
2018-10-12T02:25:12.056Z,14.96
2018-10-12T02:27:40.404Z,14.92
2018-10-12T02:30:09.326Z,14.83
2018-10-12T02:32:37.910Z,14.85
2018-10-12T02:35:06.497Z,14.85
2018-10-12T02:37:34.922Z,14.82
2018-10-12T02:40:03.332Z,14.79
2018-10-12T02:42:31.668Z,14.73
2018-10-12T02:44:59.989Z,14.72
2018-10-12T02:47:28.321Z,14.67
2018-10-12T02:49:56.657Z,14.62
2018-10-12T02:52:24.986Z,14.61
2018-10-12T02:54:53.353Z,14.62
2018-10-12T02:57:21.675Z,14.60
2018-10-12T02:59:50.041Z,14.60
2018-10-12T03:02:18.361Z,14.61
2018-10-12T03:04:46.716Z,14.59
2018-10-12T03:07:15.056Z,14.58
2018-10-12T03:09:43.405Z,14.63
2018-10-12T03:12:11.847Z,14.59
2018-10-12T03:14:40.180Z,14.59
2018-10-12T03:17:08.547Z,14.56
2018-10-12T03:19:37.112Z,14.48
2018-10-12T03:22:05.473Z,14.44
2018-10-12T03:24:33.883Z,14.41
2018-10-12T03:27:02.267Z,14.43
2018-10-12T03:29:30.611Z,14.45
2018-10-12T03:31:58.948Z,14.38
2018-10-12T03:34:27.308Z,14.37
2018-10-12T03:36:55.670Z,14.36
2018-10-12T03:39:24.017Z,14.32
2018-10-12T03:41:52.352Z,14.31
2018-10-12T03:44:20.710Z,14.33
2018-10-12T03:46:49.061Z,14.29
2018-10-12T03:49:17.399Z,14.30
2018-10-12T03:51:45.770Z,14.29
2018-10-12T03:54:14.165Z,14.23
2018-10-12T03:56:42.499Z,14.24
2018-10-12T03:59:10.981Z,14.26
2018-10-12T04:01:39.328Z,14.23
2018-10-12T04:04:07.673Z,14.22
2018-10-12T04:06:36.021Z,14.19
2018-10-12T04:09:05.490Z,14.23
2018-10-12T04:11:33.829Z,14.21
2018-10-12T04:14:02.146Z,14.19
2018-10-12T04:16:30.651Z,14.13
2018-10-12T04:18:58.980Z,14.13
2018-10-12T04:21:27.352Z,14.12
2018-10-12T04:23:55.671Z,14.11
2018-10-12T04:26:24.009Z,14.12
2018-10-12T04:28:52.349Z,14.02
2018-10-12T04:31:20.684Z,14.03
2018-10-12T04:33:49.051Z,14.00
2018-10-12T04:36:17.471Z,13.96
2018-10-12T04:38:57.101Z,14.03
2018-10-12T04:41:25.465Z,14.05
2018-10-12T04:43:55.225Z,14.01
2018-10-12T04:46:28.733Z,13.95
2018-10-12T04:48:57.144Z,13.97
2018-10-12T04:51:47.189Z,13.98
2018-10-12T04:54:15.778Z,13.94
2018-10-12T04:56:44.556Z,13.91
2018-10-12T04:59:12.909Z,13.82
2018-10-12T05:01:41.257Z,13.71
2018-10-12T05:04:09.637Z,13.71
2018-10-12T05:06:38.003Z,13.69
2018-10-12T05:09:08.086Z,13.63
2018-10-12T05:11:36.482Z,13.62
2018-10-12T05:14:04.822Z,13.57
2018-10-12T05:16:33.168Z,13.55
2018-10-12T05:19:01.520Z,13.56
2018-10-12T05:21:29.901Z,13.50
2018-10-12T05:23:58.251Z,13.49
2018-10-12T05:26:26.616Z,13.51
2018-10-12T05:28:55.005Z,13.50
2018-10-12T05:31:23.347Z,13.43
2018-10-12T05:33:51.689Z,13.43
2018-10-12T05:36:20.033Z,13.45
2018-10-12T05:38:48.380Z,13.40
2018-10-12T05:41:17.602Z,13.37
2018-10-12T05:43:46.031Z,13.40
2018-10-12T05:46:14.305Z,13.38
2018-10-12T05:48:54.117Z,13.31
2018-10-12T05:51:22.457Z,13.28
2018-10-12T05:53:52.341Z,13.27
2018-10-12T05:56:22.870Z,13.28
2018-10-12T05:58:51.553Z,13.29
2018-10-12T06:01:20.084Z,13.32
2018-10-12T06:03:48.404Z,13.32
2018-10-12T06:06:16.758Z,13.34
2018-10-12T06:08:45.144Z,13.39
2018-10-12T06:11:13.532Z,13.39
2018-10-12T06:13:41.884Z,13.41
2018-10-12T06:16:10.484Z,13.40
2018-10-12T06:18:38.861Z,13.41
2018-10-12T06:21:07.722Z,13.41
2018-10-12T06:23:36.172Z,13.44
2018-10-12T06:26:04.532Z,13.48
2018-10-12T06:28:32.876Z,13.49
2018-10-12T06:31:01.239Z,13.52
2018-10-12T06:33:29.578Z,13.56
2018-10-12T06:38:25.816Z,13.55
2018-10-12T06:40:54.192Z,13.60
2018-10-12T06:43:22.552Z,13.66
2018-10-12T06:45:50.902Z,13.74
2018-10-12T06:48:19.251Z,13.75
2018-10-12T06:50:47.588Z,13.77
2018-10-12T06:53:15.896Z,13.83
2018-10-12T06:55:44.245Z,13.85
2018-10-12T06:58:12.592Z,13.89
2018-10-12T07:00:40.941Z,13.96
2018-10-12T07:03:09.310Z,14.00
2018-10-12T07:05:37.739Z,14.08
2018-10-12T07:08:06.054Z,14.14
2018-10-12T07:10:34.418Z,14.23
2018-10-12T07:13:02.765Z,14.30
2018-10-12T07:15:31.105Z,14.39
2018-10-12T07:17:59.454Z,14.47
2018-10-12T07:20:27.784Z,14.56
2018-10-12T07:22:56.281Z,14.69
2018-10-12T07:25:24.615Z,14.83
2018-10-12T07:27:52.969Z,15.05
2018-10-12T07:30:21.303Z,15.28
2018-10-12T07:32:49.650Z,15.50
2018-10-12T07:35:18.136Z,15.79
2018-10-12T07:37:46.519Z,16.12
2018-10-12T07:40:15.373Z,16.36
2018-10-12T07:42:43.850Z,16.59
2018-10-12T07:45:12.200Z,16.90
2018-10-12T07:47:40.592Z,17.05
2018-10-12T07:50:08.964Z,17.33
2018-10-12T07:52:37.357Z,17.65
2018-10-12T07:55:05.688Z,17.86
2018-10-12T07:57:34.030Z,18.12
2018-10-12T08:00:02.400Z,18.42
2018-10-12T08:02:30.754Z,18.87
2018-10-12T08:04:59.138Z,19.08
2018-10-12T08:07:27.477Z,19.30
2018-10-12T08:09:56.249Z,19.37
2018-10-12T08:12:24.582Z,19.64
2018-10-12T08:14:52.933Z,19.82
2018-10-12T08:17:21.288Z,19.94
2018-10-12T08:19:49.661Z,20.25
2018-10-12T08:22:18.007Z,20.44
2018-10-12T08:24:46.365Z,20.55
2018-10-12T08:27:14.824Z,20.90
2018-10-12T08:29:43.210Z,20.73
2018-10-12T08:32:11.878Z,20.87
2018-10-12T08:34:40.228Z,21.25
2018-10-12T08:37:08.607Z,21.21
2018-10-12T08:39:36.935Z,21.38
2018-10-12T08:42:05.349Z,21.56
2018-10-12T08:44:33.693Z,21.82
2018-10-12T08:47:02.126Z,21.92
2018-10-12T08:49:30.474Z,21.88
2018-10-12T08:51:59.647Z,22.05
2018-10-12T08:54:28.003Z,22.11
2018-10-12T08:56:56.357Z,22.35
2018-10-12T08:59:24.713Z,22.47
2018-10-12T09:01:53.115Z,22.55
2018-10-12T09:04:21.448Z,22.79
2018-10-12T09:06:49.841Z,23.01
2018-10-12T09:09:18.198Z,23.13
2018-10-12T09:11:46.554Z,23.19
2018-10-12T09:14:14.976Z,23.47
2018-10-12T09:16:43.328Z,23.37
2018-10-12T09:19:11.668Z,23.66
2018-10-12T09:21:40.167Z,23.87
2018-10-12T09:24:08.482Z,23.95
2018-10-12T09:26:36.837Z,24.13
2018-10-12T09:29:05.244Z,24.32
2018-10-12T09:31:33.710Z,24.44
2018-10-12T09:34:02.075Z,24.34
2018-10-12T09:36:30.534Z,24.36
2018-10-12T09:38:58.908Z,24.39
2018-10-12T09:41:27.240Z,24.35
2018-10-12T09:43:55.662Z,24.61
2018-10-12T09:46:23.998Z,24.51
2018-10-12T09:48:52.327Z,24.84
2018-10-12T09:51:20.736Z,24.81
2018-10-12T09:53:49.101Z,24.82
2018-10-12T09:56:17.783Z,25.07
2018-10-12T09:58:46.713Z,24.80
2018-10-12T10:01:21.595Z,24.77
2018-10-12T10:03:55.270Z,24.92
2018-10-12T10:06:23.888Z,24.99
2018-10-12T10:08:52.268Z,24.99
2018-10-12T10:11:20.587Z,25.09
2018-10-12T10:13:49.061Z,25.24
2018-10-12T10:16:17.338Z,25.04
2018-10-12T10:18:45.688Z,25.10
2018-10-12T10:21:14.014Z,24.63
2018-10-12T10:23:42.356Z,24.87
2018-10-12T10:26:10.704Z,24.76
2018-10-12T10:28:39.048Z,24.92
2018-10-12T10:31:07.401Z,24.64
2018-10-12T10:33:35.749Z,24.59
2018-10-12T10:36:04.097Z,24.44
2018-10-12T10:38:32.571Z,24.55
2018-10-12T10:41:00.950Z,24.10
2018-10-12T10:43:29.323Z,23.86
2018-10-12T10:45:57.646Z,24.00
2018-10-12T10:48:26.060Z,23.95
2018-10-12T10:50:54.409Z,23.92
2018-10-12T10:53:22.798Z,23.97
2018-10-12T10:55:51.138Z,24.02
2018-10-12T10:58:19.459Z,23.77
2018-10-12T11:00:47.850Z,23.71
2018-10-12T11:03:16.204Z,23.81
2018-10-12T11:05:44.579Z,23.71
2018-10-12T11:08:12.964Z,23.75
2018-10-12T11:10:41.302Z,23.66
2018-10-12T11:13:09.639Z,23.79
2018-10-12T11:15:37.985Z,23.61
2018-10-12T11:18:06.538Z,23.57
2018-10-12T11:20:35.375Z,23.60
2018-10-12T11:23:03.771Z,23.52
2018-10-12T11:25:32.137Z,23.49
2018-10-12T11:28:00.510Z,23.38
2018-10-12T11:30:28.872Z,23.40
2018-10-12T11:32:57.369Z,23.34
2018-10-12T11:35:25.659Z,23.38
2018-10-12T11:37:53.995Z,23.45
2018-10-12T11:40:22.391Z,23.47
2018-10-12T11:43:01.981Z,23.45
2018-10-12T11:45:30.428Z,23.39
2018-10-12T11:47:58.756Z,23.43
2018-10-12T11:50:27.135Z,23.38
2018-10-12T11:52:55.595Z,23.39
2018-10-12T11:55:24.001Z,23.37
2018-10-12T11:57:52.307Z,23.37
2018-10-12T12:00:20.641Z,23.38
2018-10-12T12:02:49.194Z,23.35
2018-10-12T12:05:17.512Z,23.43
2018-10-12T12:07:45.865Z,23.39
2018-10-12T12:10:14.203Z,23.40
2018-10-12T12:12:42.550Z,23.39
2018-10-12T12:15:10.909Z,23.52
2018-10-12T12:17:39.300Z,23.45
2018-10-12T12:20:07.648Z,23.49
2018-10-12T12:22:36.099Z,23.49
2018-10-12T12:25:04.511Z,23.52
2018-10-12T12:27:32.865Z,23.53
2018-10-12T12:30:01.204Z,23.51
2018-10-12T12:32:29.554Z,23.57
2018-10-12T12:34:58.009Z,23.55
2018-10-12T12:37:26.277Z,23.57
2018-10-12T12:39:54.597Z,23.62
2018-10-12T12:42:22.953Z,23.61
2018-10-12T12:44:51.308Z,23.57
2018-10-12T12:47:19.668Z,23.61
2018-10-12T12:49:48.037Z,23.69
2018-10-12T12:52:16.363Z,23.65
2018-10-12T12:54:44.712Z,23.71
2018-10-12T12:57:13.088Z,23.69
2018-10-12T12:59:41.441Z,23.66
2018-10-12T13:02:09.861Z,23.75
2018-10-12T13:04:38.194Z,23.76
2018-10-12T13:07:06.548Z,23.79
2018-10-12T13:09:34.896Z,23.73
2018-10-12T13:12:03.249Z,23.83
2018-10-12T13:14:31.586Z,23.76
2018-10-12T13:16:59.926Z,23.77
2018-10-12T13:19:28.277Z,23.84
2018-10-12T13:21:56.931Z,23.95
2018-10-12T13:24:25.276Z,23.94
2018-10-12T13:26:53.607Z,23.99
2018-10-12T13:29:21.954Z,24.01
2018-10-12T13:31:50.369Z,23.96
2018-10-12T13:34:18.810Z,23.98
2018-10-12T13:36:47.142Z,24.05
2018-10-12T13:39:15.513Z,24.01
2018-10-12T13:41:43.841Z,24.02
2018-10-12T13:44:12.169Z,24.09
2018-10-12T13:46:40.590Z,24.08
2018-10-12T13:49:09.099Z,24.01
2018-10-12T13:51:37.461Z,24.05
2018-10-12T13:54:06.033Z,24.11
2018-10-12T13:56:34.403Z,24.09
2018-10-12T13:59:02.734Z,24.04
2018-10-12T14:01:31.523Z,24.12
2018-10-12T14:03:59.852Z,24.04
2018-10-12T14:06:28.225Z,24.12
2018-10-12T14:08:56.538Z,24.17
2018-10-12T14:11:24.887Z,24.17
2018-10-12T14:13:53.211Z,24.24
2018-10-12T14:16:21.546Z,24.25
2018-10-12T14:18:49.935Z,24.20
2018-10-12T14:21:18.249Z,24.25
2018-10-12T14:23:46.580Z,24.22
2018-10-12T14:26:14.924Z,24.21
2018-10-12T14:28:43.265Z,24.10
2018-10-12T14:31:11.613Z,24.15
2018-10-12T14:33:39.979Z,24.09
2018-10-12T14:36:08.337Z,24.18
2018-10-12T14:38:37.263Z,24.15
2018-10-12T14:41:05.590Z,24.15
2018-10-12T14:43:34.036Z,24.16
2018-10-12T14:46:02.381Z,24.22
2018-10-12T14:48:30.714Z,24.15
2018-10-12T14:50:59.059Z,24.14
2018-10-12T14:53:27.431Z,24.18
2018-10-12T14:55:55.756Z,24.08
2018-10-12T14:58:24.104Z,24.09
2018-10-12T15:00:52.529Z,24.06
2018-10-12T15:03:20.862Z,24.04
2018-10-12T15:05:49.230Z,24.00
2018-10-12T15:08:17.626Z,24.03
2018-10-12T15:10:45.954Z,23.94
2018-10-12T15:13:14.332Z,24.02
2018-10-12T15:15:42.670Z,24.01
2018-10-12T15:18:11.065Z,23.93
2018-10-12T15:20:39.406Z,23.85
2018-10-12T15:23:07.745Z,23.86
2018-10-12T15:25:36.088Z,23.81
2018-10-12T15:28:04.455Z,23.77
2018-10-12T15:30:32.769Z,23.69
2018-10-12T15:33:01.154Z,23.69
2018-10-12T15:35:29.497Z,23.66
2018-10-12T15:37:57.853Z,23.54
2018-10-12T15:40:26.345Z,23.49
2018-10-12T15:42:54.774Z,23.38
2018-10-12T15:45:23.057Z,23.34
2018-10-12T15:47:51.440Z,23.29
2018-10-12T15:50:29.583Z,23.21
2018-10-12T15:52:57.975Z,23.12
2018-10-12T15:55:26.314Z,23.01
2018-10-12T15:57:54.659Z,22.98
2018-10-12T16:00:23.083Z,22.89
2018-10-12T16:02:52.131Z,22.83
2018-10-12T16:05:20.524Z,22.76
2018-10-12T16:07:48.911Z,22.60
2018-10-12T16:10:17.324Z,22.55
2018-10-12T16:12:45.695Z,22.40
2018-10-12T16:15:14.044Z,22.30
2018-10-12T16:17:42.403Z,22.22
2018-10-12T16:20:10.765Z,22.15
2018-10-12T16:22:39.133Z,22.04
2018-10-12T16:25:18.853Z,21.93
2018-10-12T16:27:47.405Z,21.85
2018-10-12T16:30:15.791Z,21.79
2018-10-12T16:32:44.128Z,21.69
2018-10-12T16:35:12.479Z,21.67
2018-10-12T16:37:40.831Z,21.60
2018-10-12T16:40:09.222Z,21.53
2018-10-12T16:42:38.161Z,21.43
2018-10-12T16:45:06.541Z,21.28
2018-10-12T16:47:34.944Z,21.26
2018-10-12T16:50:03.340Z,21.16
2018-10-12T16:52:31.711Z,21.11
2018-10-12T16:55:00.056Z,21.08
2018-10-12T16:57:35.253Z,20.99
2018-10-12T17:00:03.993Z,20.89
2018-10-12T17:02:32.372Z,20.82
2018-10-12T17:05:00.712Z,20.72
2018-10-12T17:07:29.088Z,20.71
2018-10-12T17:09:57.448Z,20.63
2018-10-12T17:12:25.801Z,20.55
2018-10-12T17:14:54.172Z,20.39
2018-10-12T17:17:22.541Z,20.39
2018-10-12T17:19:50.912Z,20.34
2018-10-12T17:22:19.287Z,20.24
2018-10-12T17:24:47.652Z,20.17
2018-10-12T17:27:16.015Z,20.12
2018-10-12T17:29:44.382Z,20.06
2018-10-12T17:32:12.729Z,20.01
2018-10-12T17:34:41.086Z,20.00
2018-10-12T17:37:09.493Z,19.93
2018-10-12T17:39:37.842Z,19.72
2018-10-12T17:42:13.324Z,19.78
2018-10-12T17:44:41.794Z,19.71
2018-10-12T17:47:10.222Z,19.69
2018-10-12T17:49:38.627Z,19.58
2018-10-12T17:52:07.246Z,19.48
2018-10-12T17:54:35.611Z,19.47
2018-10-12T17:57:05.543Z,19.40
2018-10-12T17:59:34.126Z,19.33
2018-10-12T18:02:03.020Z,19.27
2018-10-12T18:04:32.628Z,19.16
2018-10-12T18:07:01.006Z,19.13
2018-10-12T18:09:29.386Z,19.07
2018-10-12T18:11:57.760Z,19.10
2018-10-12T18:14:26.248Z,19.09
2018-10-12T18:16:54.513Z,19.01
2018-10-12T18:19:22.889Z,18.96
2018-10-12T18:21:51.289Z,18.93
2018-10-12T18:24:19.652Z,18.79
2018-10-12T18:26:48.004Z,18.76
2018-10-12T18:29:16.511Z,18.68
2018-10-12T18:31:44.936Z,18.59
2018-10-12T18:34:13.290Z,18.61
2018-10-12T18:36:41.653Z,18.61
2018-10-12T18:39:11.139Z,18.52
2018-10-12T18:41:39.513Z,18.56
2018-10-12T18:44:07.879Z,18.44
2018-10-12T18:46:36.603Z,18.40
2018-10-12T18:49:05.193Z,18.28
2018-10-12T18:51:33.568Z,18.29
2018-10-12T18:54:01.972Z,18.33
2018-10-12T18:56:30.396Z,18.20
2018-10-12T18:58:58.777Z,18.26
2018-10-12T19:01:27.195Z,18.26
2018-10-12T19:03:55.900Z,18.23
2018-10-12T19:06:24.280Z,18.17
2018-10-12T19:08:52.672Z,18.12
2018-10-12T19:11:21.038Z,18.00
2018-10-12T19:13:49.446Z,17.96
2018-10-12T19:16:17.768Z,17.95
2018-10-12T19:18:46.160Z,17.92
2018-10-12T19:21:14.595Z,17.84
2018-10-12T19:23:42.967Z,17.87
2018-10-12T19:26:11.357Z,17.81
2018-10-12T19:28:39.745Z,17.72
2018-10-12T19:31:08.890Z,17.67
2018-10-12T19:33:38.121Z,17.74
2018-10-12T19:36:06.586Z,17.70
2018-10-12T19:38:34.980Z,17.68
2018-10-12T19:41:03.375Z,17.56
2018-10-12T19:43:31.723Z,17.62
2018-10-12T19:46:00.077Z,17.56
2018-10-12T19:48:28.436Z,17.56
2018-10-12T19:50:56.791Z,17.52
2018-10-12T19:53:25.136Z,17.44
2018-10-12T19:55:53.492Z,17.45
2018-10-12T19:58:21.857Z,17.29
2018-10-12T20:03:49.012Z,17.29
2018-10-12T20:06:17.353Z,17.24
2018-10-12T20:08:45.686Z,17.25
2018-10-12T20:11:14.008Z,17.23
2018-10-12T20:13:42.325Z,17.23
2018-10-12T20:16:10.665Z,17.26
2018-10-12T20:18:38.972Z,17.16
2018-10-12T20:21:07.373Z,17.15
2018-10-12T20:23:35.798Z,17.16
2018-10-12T20:26:04.121Z,17.12
2018-10-12T20:28:32.457Z,17.14
2018-10-12T20:31:00.815Z,17.17
2018-10-12T20:33:29.173Z,17.12
2018-10-12T20:35:57.505Z,17.12
2018-10-12T20:38:25.824Z,17.12
2018-10-12T20:40:54.172Z,17.14
2018-10-12T20:43:22.492Z,17.11
2018-10-12T20:45:50.822Z,17.11
2018-10-12T20:48:19.171Z,17.10
2018-10-12T20:50:47.546Z,17.02
2018-10-12T20:53:15.871Z,16.95
2018-10-12T20:55:44.229Z,16.93
2018-10-12T20:58:16.711Z,16.97
2018-10-12T21:00:45.805Z,16.96
2018-10-12T21:03:14.187Z,16.95
2018-10-12T21:05:42.766Z,16.98
2018-10-12T21:08:11.169Z,16.99
2018-10-12T21:10:39.632Z,16.96
2018-10-12T21:13:07.963Z,16.89
2018-10-12T21:15:36.296Z,16.90
2018-10-12T21:18:04.822Z,16.87
2018-10-12T21:20:33.134Z,16.78
2018-10-12T21:23:01.485Z,16.75
2018-10-12T21:25:29.856Z,16.78
2018-10-12T21:27:58.206Z,16.76
2018-10-12T21:30:26.552Z,16.73
2018-10-12T21:32:54.899Z,16.73
2018-10-12T21:35:23.237Z,16.66
2018-10-12T21:37:51.577Z,16.65
2018-10-12T21:40:19.978Z,16.64
2018-10-12T21:42:48.342Z,16.58
2018-10-12T21:45:16.663Z,16.60
2018-10-12T21:47:45.098Z,16.57
2018-10-12T21:50:13.445Z,16.49
2018-10-12T21:52:41.792Z,16.51
2018-10-12T21:55:10.128Z,16.42
2018-10-12T21:57:38.451Z,16.43
2018-10-12T22:00:06.966Z,16.32
2018-10-12T22:02:35.193Z,16.26
2018-10-12T22:05:03.555Z,16.18
2018-10-12T22:07:31.896Z,16.23
2018-10-12T22:10:00.251Z,16.27
2018-10-12T22:12:28.617Z,16.22
2018-10-12T22:14:56.977Z,16.16
2018-10-12T22:17:25.307Z,16.19
2018-10-12T22:19:53.661Z,16.18
2018-10-12T22:22:22.013Z,16.18
2018-10-12T22:24:50.716Z,16.10
2018-10-12T22:27:19.063Z,16.01
2018-10-12T22:29:47.368Z,15.96
2018-10-12T22:32:15.720Z,15.94
2018-10-12T22:34:44.055Z,15.94
2018-10-12T22:37:12.377Z,15.89
2018-10-12T22:39:43.549Z,15.93
2018-10-12T22:42:13.250Z,15.87
2018-10-12T22:44:41.576Z,15.92
2018-10-12T22:47:10.537Z,15.85
2018-10-12T22:49:39.213Z,15.81
2018-10-12T22:52:07.774Z,15.81
2018-10-12T22:54:36.116Z,15.80
2018-10-12T22:57:04.482Z,15.79
2018-10-12T22:59:32.808Z,15.79
2018-10-12T23:02:01.209Z,15.78
2018-10-12T23:04:29.564Z,15.68
2018-10-12T23:06:57.891Z,15.71
2018-10-12T23:09:26.224Z,15.71
2018-10-12T23:11:54.535Z,15.69
2018-10-12T23:14:22.876Z,15.66
2018-10-12T23:16:51.189Z,15.68
2018-10-12T23:19:19.538Z,15.68
2018-10-12T23:21:47.870Z,15.66
2018-10-12T23:24:16.203Z,15.66
2018-10-12T23:26:44.532Z,15.70
2018-10-12T23:29:12.866Z,15.73
2018-10-12T23:31:41.189Z,15.74
2018-10-12T23:34:10.037Z,15.75
2018-10-12T23:36:38.389Z,15.73
2018-10-12T23:39:08.510Z,15.73
2018-10-12T23:41:36.857Z,15.68
2018-10-12T23:44:05.459Z,15.69
2018-10-12T23:46:33.778Z,15.61
2018-10-12T23:49:02.130Z,15.69
2018-10-12T23:51:30.438Z,15.63
2018-10-12T23:53:58.773Z,15.60
2018-10-12T23:56:27.281Z,15.58
2018-10-12T23:58:55.614Z,15.60
